sensor_id;sensor_type;location;lat;lon;timestamp;pressure;altitude;pressure_sealevel;temperature;humidity
49979;BME280;35869;50.990;6.962;2022-08-01T00:02:16;101277.28;;;22.54;68.82
49979;BME280;35869;50.990;6.962;2022-08-01T00:07:17;101291.78;;;22.29;69.71
49979;BME280;35869;50.990;6.962;2022-08-01T00:12:17;101283.94;;;22.27;70.65
49979;BME280;35869;50.990;6.962;2022-08-01T00:17:17;101279.53;;;22.38;71.53
49979;BME280;35869;50.990;6.962;2022-08-01T00:22:18;101279.75;;;22.46;69.57
49979;BME280;35869;50.990;6.962;2022-08-01T00:27:18;101275.00;;;22.49;68.70
49979;BME280;35869;50.990;6.962;2022-08-01T00:32:18;101274.69;;;22.43;69.49
49979;BME280;35869;50.990;6.962;2022-08-01T00:37:19;101277.16;;;22.34;70.59
49979;BME280;35869;50.990;6.962;2022-08-01T00:42:19;101276.44;;;22.32;72.05
49979;BME280;35869;50.990;6.962;2022-08-01T00:47:19;101283.31;;;22.14;73.13
49979;BME280;35869;50.990;6.962;2022-08-01T00:52:20;101279.44;;;22.18;73.72
49979;BME280;35869;50.990;6.962;2022-08-01T00:57:20;101281.94;;;21.99;73.24
49979;BME280;35869;50.990;6.962;2022-08-01T01:02:20;101279.69;;;22.15;71.34
49979;BME280;35869;50.990;6.962;2022-08-01T01:07:28;101283.00;;;21.96;73.45
49979;BME280;35869;50.990;6.962;2022-08-01T01:12:37;101280.69;;;22.03;73.38
49979;BME280;35869;50.990;6.962;2022-08-01T01:28:40;101292.19;;;21.81;74.30
49979;BME280;35869;50.990;6.962;2022-08-01T01:33:43;101291.00;;;21.85;73.39
49979;BME280;35869;50.990;6.962;2022-08-01T01:38:45;101285.41;;;21.67;74.24
49979;BME280;35869;50.990;6.962;2022-08-01T01:43:46;101292.38;;;21.68;74.60
49979;BME280;35869;50.990;6.962;2022-08-01T01:48:48;101291.97;;;21.52;74.58
49979;BME280;35869;50.990;6.962;2022-08-01T01:53:51;101292.19;;;21.49;75.66
49979;BME280;35869;50.990;6.962;2022-08-01T01:58:57;101298.47;;;21.48;75.69
49979;BME280;35869;50.990;6.962;2022-08-01T02:03:58;101294.41;;;21.33;75.62
49979;BME280;35869;50.990;6.962;2022-08-01T02:09:00;101290.75;;;21.45;74.15
49979;BME280;35869;50.990;6.962;2022-08-01T02:14:02;101289.06;;;21.55;72.83
49979;BME280;35869;50.990;6.962;2022-08-01T02:19:03;101284.50;;;21.46;73.85
49979;BME280;35869;50.990;6.962;2022-08-01T02:24:16;101287.41;;;21.43;75.34
49979;BME280;35869;50.990;6.962;2022-08-01T02:29:27;101288.97;;;21.34;74.92
49979;BME280;35869;50.990;6.962;2022-08-01T02:34:32;101285.03;;;21.28;75.49
49979;BME280;35869;50.990;6.962;2022-08-01T02:39:35;101276.16;;;21.29;76.29
49979;BME280;35869;50.990;6.962;2022-08-01T02:44:38;101275.88;;;21.44;74.93
49979;BME280;35869;50.990;6.962;2022-08-01T02:49:44;101268.44;;;21.38;75.12
49979;BME280;35869;50.990;6.962;2022-08-01T02:54:47;101274.91;;;21.45;73.70
49979;BME280;35869;50.990;6.962;2022-08-01T02:59:49;101267.81;;;21.34;74.84
49979;BME280;35869;50.990;6.962;2022-08-01T03:04:51;101267.97;;;21.33;76.41
49979;BME280;35869;50.990;6.962;2022-08-01T03:09:52;101274.91;;;21.22;76.88
49979;BME280;35869;50.990;6.962;2022-08-01T03:14:55;101273.13;;;21.23;76.22
49979;BME280;35869;50.990;6.962;2022-08-01T03:19:58;101278.53;;;21.33;75.47
49979;BME280;35869;50.990;6.962;2022-08-01T03:25:01;101283.31;;;21.27;75.77
49979;BME280;35869;50.990;6.962;2022-08-01T03:30:04;101286.22;;;21.24;75.86
49979;BME280;35869;50.990;6.962;2022-08-01T03:35:04;101290.31;;;21.28;74.71
49979;BME280;35869;50.990;6.962;2022-08-01T03:45:27;101292.50;;;21.12;77.10
49979;BME280;35869;50.990;6.962;2022-08-01T03:50:30;101305.94;;;21.09;77.23
49979;BME280;35869;50.990;6.962;2022-08-01T03:55:33;101299.94;;;21.18;76.81
49979;BME280;35869;50.990;6.962;2022-08-01T04:00:39;101296.69;;;21.15;76.36
49979;BME280;35869;50.990;6.962;2022-08-01T04:05:43;101297.53;;;21.15;76.90
49979;BME280;35869;50.990;6.962;2022-08-01T04:10:43;101297.66;;;21.14;76.16
49979;BME280;35869;50.990;6.962;2022-08-01T04:15:43;101294.78;;;21.17;75.55
49979;BME280;35869;50.990;6.962;2022-08-01T04:20:46;101294.28;;;21.12;77.52
49979;BME280;35869;50.990;6.962;2022-08-01T04:25:48;101291.03;;;21.08;78.23
49979;BME280;35869;50.990;6.962;2022-08-01T04:30:50;101303.41;;;21.08;77.14
49979;BME280;35869;50.990;6.962;2022-08-01T04:35:52;101311.00;;;21.12;77.54
49979;BME280;35869;50.990;6.962;2022-08-01T04:40:52;101311.69;;;21.14;76.02
49979;BME280;35869;50.990;6.962;2022-08-01T04:45:54;101308.09;;;21.15;75.51
49979;BME280;35869;50.990;6.962;2022-08-01T04:50:55;101324.56;;;21.08;77.11
49979;BME280;35869;50.990;6.962;2022-08-01T04:55:55;101331.78;;;21.17;76.84
49979;BME280;35869;50.990;6.962;2022-08-01T05:00:55;101331.41;;;21.10;77.88
49979;BME280;35869;50.990;6.962;2022-08-01T05:05:56;101333.56;;;21.16;76.96
49979;BME280;35869;50.990;6.962;2022-08-01T05:10:56;101333.22;;;21.10;78.52
49979;BME280;35869;50.990;6.962;2022-08-01T05:15:56;101338.13;;;21.14;78.31
49979;BME280;35869;50.990;6.962;2022-08-01T05:20:56;101335.75;;;21.11;78.98
49979;BME280;35869;50.990;6.962;2022-08-01T05:25:57;101343.19;;;21.06;81.05
49979;BME280;35869;50.990;6.962;2022-08-01T05:30:57;101348.22;;;21.09;83.46
49979;BME280;35869;50.990;6.962;2022-08-01T05:35:57;101351.63;;;21.11;82.69
49979;BME280;35869;50.990;6.962;2022-08-01T05:40:57;101351.34;;;21.14;84.39
49979;BME280;35869;50.990;6.962;2022-08-01T05:45:58;101354.34;;;21.21;84.55
49979;BME280;35869;50.990;6.962;2022-08-01T05:50:58;101348.09;;;21.22;83.54
49979;BME280;35869;50.990;6.962;2022-08-01T05:55:58;101358.69;;;21.11;85.83
49979;BME280;35869;50.990;6.962;2022-08-01T06:00:59;101357.75;;;21.12;85.37
49979;BME280;35869;50.990;6.962;2022-08-01T06:05:59;101352.44;;;21.12;85.32
49979;BME280;35869;50.990;6.962;2022-08-01T06:11:00;101347.03;;;21.13;86.81
49979;BME280;35869;50.990;6.962;2022-08-01T06:16:00;101353.50;;;21.09;84.96
49979;BME280;35869;50.990;6.962;2022-08-01T06:21:01;101347.03;;;21.13;84.68
49979;BME280;35869;50.990;6.962;2022-08-01T06:26:01;101353.66;;;21.08;83.81
49979;BME280;35869;50.990;6.962;2022-08-01T06:31:01;101349.19;;;21.19;84.03
49979;BME280;35869;50.990;6.962;2022-08-01T06:36:02;101361.72;;;21.17;85.47
49979;BME280;35869;50.990;6.962;2022-08-01T06:41:02;101355.19;;;21.21;83.43
49979;BME280;35869;50.990;6.962;2022-08-01T06:46:02;101349.53;;;21.26;83.46
49979;BME280;35869;50.990;6.962;2022-08-01T06:51:02;101347.25;;;21.21;84.47
49979;BME280;35869;50.990;6.962;2022-08-01T06:56:04;101346.94;;;21.37;81.13
49979;BME280;35869;50.990;6.962;2022-08-01T07:01:05;101359.06;;;21.40;80.80
49979;BME280;35869;50.990;6.962;2022-08-01T07:06:05;101360.75;;;21.41;82.96
49979;BME280;35869;50.990;6.962;2022-08-01T07:11:05;101354.16;;;21.35;83.24
49979;BME280;35869;50.990;6.962;2022-08-01T07:16:06;101359.78;;;21.42;83.17
49979;BME280;35869;50.990;6.962;2022-08-01T07:21:06;101348.78;;;21.58;78.91
49979;BME280;35869;50.990;6.962;2022-08-01T07:26:06;101363.13;;;21.55;82.01
49979;BME280;35869;50.990;6.962;2022-08-01T07:31:06;101353.03;;;21.60;77.82
49979;BME280;35869;50.990;6.962;2022-08-01T07:36:07;101353.03;;;21.60;81.76
49979;BME280;35869;50.990;6.962;2022-08-01T07:41:07;101362.00;;;21.69;80.86
49979;BME280;35869;50.990;6.962;2022-08-01T07:46:07;101365.25;;;21.72;80.58
49979;BME280;35869;50.990;6.962;2022-08-01T07:51:08;101377.63;;;21.72;81.10
49979;BME280;35869;50.990;6.962;2022-08-01T07:56:08;101377.97;;;21.78;80.45
49979;BME280;35869;50.990;6.962;2022-08-01T08:01:08;101375.44;;;21.88;77.70
49979;BME280;35869;50.990;6.962;2022-08-01T08:06:08;101374.47;;;21.89;80.64
49979;BME280;35869;50.990;6.962;2022-08-01T08:11:09;101368.78;;;22.05;79.14
49979;BME280;35869;50.990;6.962;2022-08-01T08:16:09;101369.47;;;22.07;77.79
49979;BME280;35869;50.990;6.962;2022-08-01T08:21:09;101366.03;;;22.27;75.70
49979;BME280;35869;50.990;6.962;2022-08-01T08:26:10;101366.25;;;22.35;75.99
49979;BME280;35869;50.990;6.962;2022-08-01T08:31:11;101371.53;;;22.35;75.31
49979;BME280;35869;50.990;6.962;2022-08-01T08:36:13;101379.91;;;22.52;74.70
49979;BME280;35869;50.990;6.962;2022-08-01T08:41:13;101380.53;;;22.65;74.22
49979;BME280;35869;50.990;6.962;2022-08-01T08:46:14;101375.09;;;22.67;75.82
49979;BME280;35869;50.990;6.962;2022-08-01T08:51:17;101390.25;;;22.85;73.62
49979;BME280;35869;50.990;6.962;2022-08-01T08:56:18;101389.81;;;22.80;73.79
49979;BME280;35869;50.990;6.962;2022-08-01T09:01:19;101393.41;;;22.91;73.72
49979;BME280;35869;50.990;6.962;2022-08-01T09:06:19;101384.47;;;22.92;73.35
49979;BME280;35869;50.990;6.962;2022-08-01T09:11:20;101398.63;;;23.02;72.89
49979;BME280;35869;50.990;6.962;2022-08-01T09:16:20;101404.09;;;23.10;71.93
49979;BME280;35869;50.990;6.962;2022-08-01T09:21:21;101407.69;;;23.30;69.98
49979;BME280;35869;50.990;6.962;2022-08-01T09:26:30;101415.03;;;23.17;72.26
49979;BME280;35869;50.990;6.962;2022-08-01T09:31:40;101402.81;;;23.35;71.14
49979;BME280;35869;50.990;6.962;2022-08-01T09:36:46;101410.69;;;23.56;69.79
49979;BME280;35869;50.990;6.962;2022-08-01T09:41:47;101408.19;;;23.54;70.58
49979;BME280;35869;50.990;6.962;2022-08-01T09:46:53;101406.16;;;23.67;69.10
49979;BME280;35869;50.990;6.962;2022-08-01T09:51:54;101410.97;;;23.93;67.83
49979;BME280;35869;50.990;6.962;2022-08-01T09:57:07;101405.47;;;23.85;68.72
49979;BME280;35869;50.990;6.962;2022-08-01T10:02:09;101412.22;;;24.08;67.60
49979;BME280;35869;50.990;6.962;2022-08-01T10:07:10;101402.56;;;23.98;67.25
49979;BME280;35869;50.990;6.962;2022-08-01T10:12:12;101406.38;;;24.24;66.24
49979;BME280;35869;50.990;6.962;2022-08-01T10:17:15;101392.94;;;24.16;66.91
49979;BME280;35869;50.990;6.962;2022-08-01T10:22:17;101399.25;;;24.44;65.02
49979;BME280;35869;50.990;6.962;2022-08-01T10:27:18;101394.50;;;24.48;66.38
49979;BME280;35869;50.990;6.962;2022-08-01T10:32:19;101386.56;;;24.85;65.14
49979;BME280;35869;50.990;6.962;2022-08-01T10:37:20;101395.44;;;24.76;63.85
49979;BME280;35869;50.990;6.962;2022-08-01T10:42:20;101400.41;;;24.98;61.97
49979;BME280;35869;50.990;6.962;2022-08-01T10:47:25;101386.44;;;25.33;62.81
49979;BME280;35869;50.990;6.962;2022-08-01T10:52:28;101380.31;;;25.78;62.43
49979;BME280;35869;50.990;6.962;2022-08-01T10:57:46;101384.78;;;25.50;61.71
49979;BME280;35869;50.990;6.962;2022-08-01T11:03:00;101385.41;;;25.89;60.49
49979;BME280;35869;50.990;6.962;2022-08-01T11:08:03;101384.13;;;25.75;60.03
49979;BME280;35869;50.990;6.962;2022-08-01T11:13:06;101376.50;;;25.81;59.77
49979;BME280;35869;50.990;6.962;2022-08-01T11:18:31;101379.41;;;26.05;58.18
49979;BME280;35869;50.990;6.962;2022-08-01T11:23:46;101360.59;;;26.42;58.65
49979;BME280;35869;50.990;6.962;2022-08-01T11:29:11;101358.13;;;26.31;57.38
49979;BME280;35869;50.990;6.962;2022-08-01T11:34:12;101357.88;;;26.60;57.45
49979;BME280;35869;50.990;6.962;2022-08-01T11:39:14;101355.44;;;27.01;55.55
49979;BME280;35869;50.990;6.962;2022-08-01T11:44:20;101350.09;;;27.27;55.88
49979;BME280;35869;50.990;6.962;2022-08-01T11:49:24;101341.44;;;27.33;55.40
49979;BME280;35869;50.990;6.962;2022-08-01T11:54:34;101340.13;;;27.61;55.54
49979;BME280;35869;50.990;6.962;2022-08-01T11:59:42;101332.78;;;27.55;54.34
49979;BME280;35869;50.990;6.962;2022-08-01T12:04:53;101339.72;;;27.24;52.49
49979;BME280;35869;50.990;6.962;2022-08-01T12:15:00;101357.09;;;27.36;53.86
49979;BME280;35869;50.990;6.962;2022-08-01T12:20:03;101362.44;;;27.36;53.21
49979;BME280;35869;50.990;6.962;2022-08-01T12:25:12;101361.19;;;27.56;51.08
49979;BME280;35869;50.990;6.962;2022-08-01T12:30:15;101358.69;;;27.13;51.98
49979;BME280;35869;50.990;6.962;2022-08-01T12:35:21;101361.13;;;27.40;50.43
49979;BME280;35869;50.990;6.962;2022-08-01T12:40:24;101358.81;;;27.45;49.48
49979;BME280;35869;50.990;6.962;2022-08-01T12:45:28;101360.53;;;27.20;49.67
49979;BME280;35869;50.990;6.962;2022-08-01T12:50:30;101353.69;;;27.09;50.40
49979;BME280;35869;50.990;6.962;2022-08-01T12:55:31;101348.22;;;27.70;50.25
49979;BME280;35869;50.990;6.962;2022-08-01T13:00:32;101343.53;;;27.72;50.83
49979;BME280;35869;50.990;6.962;2022-08-01T13:10:48;101353.59;;;27.27;49.03
49979;BME280;35869;50.990;6.962;2022-08-01T13:16:02;101347.84;;;27.64;48.97
49979;BME280;35869;50.990;6.962;2022-08-01T13:21:23;101347.06;;;27.22;47.76
49979;BME280;35869;50.990;6.962;2022-08-01T13:26:47;101351.59;;;27.37;48.28
49979;BME280;35869;50.990;6.962;2022-08-01T13:31:47;101338.25;;;27.29;46.87
49979;BME280;35869;50.990;6.962;2022-08-01T13:36:47;101330.50;;;27.69;46.36
49979;BME280;35869;50.990;6.962;2022-08-01T13:41:48;101341.06;;;27.28;47.10
49979;BME280;35869;50.990;6.962;2022-08-01T13:46:48;101340.66;;;27.57;45.74
49979;BME280;35869;50.990;6.962;2022-08-01T13:51:48;101340.63;;;27.49;46.12
49979;BME280;35869;50.990;6.962;2022-08-01T13:56:49;101342.97;;;27.60;47.10
49979;BME280;35869;50.990;6.962;2022-08-01T14:01:49;101333.97;;;27.53;46.26
49979;BME280;35869;50.990;6.962;2022-08-01T14:06:49;101339.09;;;27.38;46.49
49979;BME280;35869;50.990;6.962;2022-08-01T14:11:50;101342.75;;;27.37;46.21
49979;BME280;35869;50.990;6.962;2022-08-01T14:16:50;101343.47;;;27.47;47.05
49979;BME280;35869;50.990;6.962;2022-08-01T14:21:50;101346.22;;;27.21;46.92
49979;BME280;35869;50.990;6.962;2022-08-01T14:26:50;101334.84;;;27.11;46.63
49979;BME280;35869;50.990;6.962;2022-08-01T14:31:50;101332.88;;;26.87;46.10
49979;BME280;35869;50.990;6.962;2022-08-01T14:36:51;101332.25;;;27.35;46.02
49979;BME280;35869;50.990;6.962;2022-08-01T14:41:51;101329.09;;;27.40;47.39
49979;BME280;35869;50.990;6.962;2022-08-01T14:46:51;101330.25;;;27.37;47.68
49979;BME280;35869;50.990;6.962;2022-08-01T14:51:51;101339.06;;;27.30;47.61
49979;BME280;35869;50.990;6.962;2022-08-01T14:56:51;101336.41;;;27.30;48.42
49979;BME280;35869;50.990;6.962;2022-08-01T15:01:52;101342.78;;;27.45;48.34
49979;BME280;35869;50.990;6.962;2022-08-01T15:06:52;101326.13;;;27.51;46.83
49979;BME280;35869;50.990;6.962;2022-08-01T15:11:52;101337.75;;;27.42;48.77
49979;BME280;35869;50.990;6.962;2022-08-01T15:16:52;101337.72;;;27.26;47.97
49979;BME280;35869;50.990;6.962;2022-08-01T15:21:52;101344.59;;;27.36;46.85
49979;BME280;35869;50.990;6.962;2022-08-01T15:26:53;101349.84;;;27.12;47.87
49979;BME280;35869;50.990;6.962;2022-08-01T15:31:53;101355.25;;;27.02;47.87
49979;BME280;35869;50.990;6.962;2022-08-01T15:36:53;101357.25;;;26.92;47.44
49979;BME280;35869;50.990;6.962;2022-08-01T15:41:54;101358.69;;;27.13;47.38
49979;BME280;35869;50.990;6.962;2022-08-01T15:46:54;101366.09;;;27.01;47.99
49979;BME280;35869;50.990;6.962;2022-08-01T15:51:54;101371.44;;;27.01;49.37
49979;BME280;35869;50.990;6.962;2022-08-01T15:56:54;101372.59;;;26.98;50.08
49979;BME280;35869;50.990;6.962;2022-08-01T16:01:55;101366.94;;;27.01;49.97
49979;BME280;35869;50.990;6.962;2022-08-01T16:06:55;101373.88;;;27.12;49.01
49979;BME280;35869;50.990;6.962;2022-08-01T16:11:55;101364.75;;;26.97;50.25
49979;BME280;35869;50.990;6.962;2022-08-01T16:16:55;101371.97;;;27.04;49.29
49979;BME280;35869;50.990;6.962;2022-08-01T16:21:56;101366.53;;;26.88;50.76
49979;BME280;35869;50.990;6.962;2022-08-01T16:26:56;101368.41;;;26.96;50.53
49979;BME280;35869;50.990;6.962;2022-08-01T16:31:57;101382.44;;;26.98;50.13
49979;BME280;35869;50.990;6.962;2022-08-01T16:36:57;101377.31;;;26.78;50.95
49979;BME280;35869;50.990;6.962;2022-08-01T16:41:57;101379.53;;;26.39;50.81
49979;BME280;35869;50.990;6.962;2022-08-01T16:46:57;101384.03;;;26.21;51.37
49979;BME280;35869;50.990;6.962;2022-08-01T16:51:58;101374.44;;;26.46;50.90
49979;BME280;35869;50.990;6.962;2022-08-01T16:56:58;101381.66;;;26.36;50.98
49979;BME280;35869;50.990;6.962;2022-08-01T17:01:58;101381.34;;;26.21;50.89
49979;BME280;35869;50.990;6.962;2022-08-01T17:06:59;101387.56;;;26.21;51.32
49979;BME280;35869;50.990;6.962;2022-08-01T17:11:59;101394.56;;;26.04;51.73
49979;BME280;35869;50.990;6.962;2022-08-01T17:16:59;101404.91;;;26.08;51.90
49979;BME280;35869;50.990;6.962;2022-08-01T17:22:00;101395.22;;;25.89;51.71
49979;BME280;35869;50.990;6.962;2022-08-01T17:27:00;101393.41;;;25.89;52.07
49979;BME280;35869;50.990;6.962;2022-08-01T17:32:00;101395.16;;;25.81;52.81
49979;BME280;35869;50.990;6.962;2022-08-01T17:37:01;101399.25;;;25.75;52.90
49979;BME280;35869;50.990;6.962;2022-08-01T17:42:01;101394.09;;;25.64;52.10
49979;BME280;35869;50.990;6.962;2022-08-01T17:47:01;101390.22;;;25.58;53.58
49979;BME280;35869;50.990;6.962;2022-08-01T17:52:01;101387.31;;;25.51;53.58
49979;BME280;35869;50.990;6.962;2022-08-01T17:57:02;101400.50;;;25.43;52.69
49979;BME280;35869;50.990;6.962;2022-08-01T18:02:02;101400.03;;;25.30;53.03
49979;BME280;35869;50.990;6.962;2022-08-01T18:07:02;101397.09;;;25.33;52.74
49979;BME280;35869;50.990;6.962;2022-08-01T18:12:03;101397.88;;;25.06;52.58
49979;BME280;35869;50.990;6.962;2022-08-01T18:17:05;101403.50;;;24.84;52.80
49979;BME280;35869;50.990;6.962;2022-08-01T18:22:06;101403.34;;;24.95;52.21
49979;BME280;35869;50.990;6.962;2022-08-01T18:27:07;101410.50;;;24.85;53.18
49979;BME280;35869;50.990;6.962;2022-08-01T18:32:07;101416.13;;;24.72;52.85
49979;BME280;35869;50.990;6.962;2022-08-01T18:37:07;101419.38;;;24.66;52.86
49979;BME280;35869;50.990;6.962;2022-08-01T18:42:07;101434.91;;;24.61;52.24
49979;BME280;35869;50.990;6.962;2022-08-01T18:47:08;101444.41;;;24.44;52.67
49979;BME280;35869;50.990;6.962;2022-08-01T18:52:08;101442.72;;;24.33;53.44
49979;BME280;35869;50.990;6.962;2022-08-01T18:57:08;101445.78;;;24.19;52.77
49979;BME280;35869;50.990;6.962;2022-08-01T19:02:09;101452.91;;;23.99;53.50
49979;BME280;35869;50.990;6.962;2022-08-01T19:07:09;101448.81;;;23.95;53.42
49979;BME280;35869;50.990;6.962;2022-08-01T19:12:09;101458.31;;;23.88;53.49
49979;BME280;35869;50.990;6.962;2022-08-01T19:17:10;101466.94;;;23.80;54.19
49979;BME280;35869;50.990;6.962;2022-08-01T19:22:10;101468.75;;;23.70;53.03
49979;BME280;35869;50.990;6.962;2022-08-01T19:27:14;101466.03;;;23.60;53.28
49979;BME280;35869;50.990;6.962;2022-08-01T19:32:16;101473.94;;;23.51;53.40
49979;BME280;35869;50.990;6.962;2022-08-01T19:37:17;101490.09;;;23.38;54.80
49979;BME280;35869;50.990;6.962;2022-08-01T19:42:19;101496.31;;;23.27;54.64
49979;BME280;35869;50.990;6.962;2022-08-01T19:47:19;101506.59;;;23.21;53.72
49979;BME280;35869;50.990;6.962;2022-08-01T19:52:24;101513.09;;;23.07;53.70
49979;BME280;35869;50.990;6.962;2022-08-01T19:57:24;101511.47;;;22.95;54.05
49979;BME280;35869;50.990;6.962;2022-08-01T20:02:25;101511.97;;;22.88;53.73
49979;BME280;35869;50.990;6.962;2022-08-01T20:07:27;101513.22;;;22.73;54.18
49979;BME280;35869;50.990;6.962;2022-08-01T20:12:27;101518.97;;;22.57;54.27
49979;BME280;35869;50.990;6.962;2022-08-01T20:17:28;101523.06;;;22.50;54.18
49979;BME280;35869;50.990;6.962;2022-08-01T20:22:31;101521.19;;;22.41;54.87
49979;BME280;35869;50.990;6.962;2022-08-01T20:27:32;101519.25;;;22.32;55.13
49979;BME280;35869;50.990;6.962;2022-08-01T20:32:36;101522.53;;;22.24;54.91
49979;BME280;35869;50.990;6.962;2022-08-01T20:37:37;101544.44;;;22.15;55.65
49979;BME280;35869;50.990;6.962;2022-08-01T20:42:38;101542.63;;;22.04;55.75
49979;BME280;35869;50.990;6.962;2022-08-01T20:47:39;101530.00;;;21.97;55.80
49979;BME280;35869;50.990;6.962;2022-08-01T20:52:45;101530.50;;;21.91;55.74
49979;BME280;35869;50.990;6.962;2022-08-01T20:57:48;101538.44;;;21.79;56.94
49979;BME280;35869;50.990;6.962;2022-08-01T21:08:47;101535.78;;;21.68;57.88
49979;BME280;35869;50.990;6.962;2022-08-01T21:13:49;101541.34;;;21.65;56.95
49979;BME280;35869;50.990;6.962;2022-08-01T21:18:55;101541.66;;;21.49;58.30
49979;BME280;35869;50.990;6.962;2022-08-01T21:24:01;101543.72;;;21.35;58.25
49979;BME280;35869;50.990;6.962;2022-08-01T21:29:05;101536.22;;;21.28;59.08
49979;BME280;35869;50.990;6.962;2022-08-01T21:34:05;101539.28;;;21.22;58.72
49979;BME280;35869;50.990;6.962;2022-08-01T21:39:06;101532.66;;;21.06;59.19
49979;BME280;35869;50.990;6.962;2022-08-01T21:44:06;101536.84;;;20.97;59.74
49979;BME280;35869;50.990;6.962;2022-08-01T21:49:08;101539.22;;;20.89;59.96
49979;BME280;35869;50.990;6.962;2022-08-01T21:54:28;101537.63;;;20.86;60.08
49979;BME280;35869;50.990;6.962;2022-08-01T21:59:57;101548.59;;;20.69;60.96
49979;BME280;35869;50.990;6.962;2022-08-01T22:05:09;101543.78;;;20.63;60.71
49979;BME280;35869;50.990;6.962;2022-08-01T22:10:12;101545.50;;;20.51;61.00
49979;BME280;35869;50.990;6.962;2022-08-01T22:15:13;101550.22;;;20.35;61.43
49979;BME280;35869;50.990;6.962;2022-08-01T22:20:14;101554.13;;;20.29;60.91
49979;BME280;35869;50.990;6.962;2022-08-01T22:25:14;101567.44;;;20.28;61.69
49979;BME280;35869;50.990;6.962;2022-08-01T22:30:16;101558.06;;;20.23;61.55
49979;BME280;35869;50.990;6.962;2022-08-01T22:35:16;101561.47;;;20.13;61.83
49979;BME280;35869;50.990;6.962;2022-08-01T22:40:16;101555.03;;;20.04;61.79
49979;BME280;35869;50.990;6.962;2022-08-01T22:56:45;101553.34;;;20.03;61.54
49979;BME280;35869;50.990;6.962;2022-08-01T23:01:48;101552.22;;;19.94;62.67
49979;BME280;35869;50.990;6.962;2022-08-01T23:06:49;101543.22;;;19.97;62.25
49979;BME280;35869;50.990;6.962;2022-08-01T23:11:50;101546.19;;;19.80;63.33
49979;BME280;35869;50.990;6.962;2022-08-01T23:16:52;101534.28;;;19.74;63.42
49979;BME280;35869;50.990;6.962;2022-08-01T23:21:53;101547.06;;;19.67;62.92
49979;BME280;35869;50.990;6.962;2022-08-01T23:26:55;101552.03;;;19.59;63.60
49979;BME280;35869;50.990;6.962;2022-08-01T23:31:56;101548.06;;;19.52;63.47
49979;BME280;35869;50.990;6.962;2022-08-01T23:36:56;101554.41;;;19.50;63.93
49979;BME280;35869;50.990;6.962;2022-08-01T23:41:56;101551.47;;;19.41;65.03
49979;BME280;35869;50.990;6.962;2022-08-01T23:46:57;101550.28;;;19.33;64.79
49979;BME280;35869;50.990;6.962;2022-08-01T23:51:57;101550.81;;;19.25;65.27
49979;BME280;35869;50.990;6.962;2022-08-01T23:56:57;101553.34;;;19.27;65.05
